To NAV CANADA Home Page Login to a new session Search on AWWS site Disclaimer Vers la page française équivalente Tips FAQ What's new on the site To the Forecasts and Observations / NOTAM section To "File a Flight Plan" website Publications and other links Update of the User's profile FIC Telephone Numbers My Weather Data Folder Route Weather Data Regional Weather Data Local Weather Data To the Forecasts and Observations / NOTAM section
Request Generated 10/19/2018 at 15:26:49 UTC . Weather information available at that time is displayed.

METAR/TAF

BLUE RIVER/BC    (show WxCam)

METAR CYCP 191500Z VRB02KT 15SM VCFG FEW003 SCT140 BKN190 00/00 A3039 RMK SF1AC3AC3 VIS VLY E 2 FU ALQDS SLP322=
SPECI CYCP 191454Z 00000KT 15SM VCFG FEW003 SCT140 BKN190 00/M00 A3039 RMK SF1AC3AC3 FU ALQDS VIS VLY E 2 SLP320=
METAR CYCP 191400Z 21003KT 180V320 1SM BR SCT005 BKN070 BKN120 00/00 A3038 RMK FG2SF2AC2AC1 VIS W-NE 15 SLP318=
METAR CYCP 191300Z 00000KT 1SM BR OVC090 M00/M01 A3039 RMK FG7AC1 FROIN SLP321=

CYCP - No TAF is issued for this station

Your time UTC time
Weather data provided by Environment Canada and NAV CANADA